sensor_id;sensor_type;location;lat;lon;timestamp;temperature;humidity
27306;DHT22;14792;50.886;6.468;2022-09-03T00:02:46;17.20;95.90
27306;DHT22;14792;50.886;6.468;2022-09-03T00:05:54;17.10;95.80
27306;DHT22;14792;50.886;6.468;2022-09-03T00:09:07;17.20;95.80
27306;DHT22;14792;50.886;6.468;2022-09-03T00:12:12;17.30;95.90
27306;DHT22;14792;50.886;6.468;2022-09-03T00:15:20;17.30;95.60
27306;DHT22;14792;50.886;6.468;2022-09-03T00:18:22;17.30;95.50
27306;DHT22;14792;50.886;6.468;2022-09-03T00:24:37;17.20;96.00
27306;DHT22;14792;50.886;6.468;2022-09-03T00:27:38;17.20;96.00
27306;DHT22;14792;50.886;6.468;2022-09-03T00:30:40;17.10;96.20
27306;DHT22;14792;50.886;6.468;2022-09-03T00:33:41;17.00;96.40
27306;DHT22;14792;50.886;6.468;2022-09-03T00:36:43;17.00;96.60
27306;DHT22;14792;50.886;6.468;2022-09-03T00:39:44;17.00;96.90
27306;DHT22;14792;50.886;6.468;2022-09-03T00:42:49;17.00;96.50
27306;DHT22;14792;50.886;6.468;2022-09-03T00:46:08;17.00;96.60
27306;DHT22;14792;50.886;6.468;2022-09-03T00:59:07;16.90;96.90
27306;DHT22;14792;50.886;6.468;2022-09-03T01:02:39;16.80;97.20
27306;DHT22;14792;50.886;6.468;2022-09-03T01:12:04;16.70;97.60
27306;DHT22;14792;50.886;6.468;2022-09-03T01:15:11;16.70;97.70
27306;DHT22;14792;50.886;6.468;2022-09-03T01:24:53;16.60;98.00
27306;DHT22;14792;50.886;6.468;2022-09-03T01:31:34;16.50;98.00
27306;DHT22;14792;50.886;6.468;2022-09-03T01:38:16;16.50;98.40
27306;DHT22;14792;50.886;6.468;2022-09-03T01:41:25;16.50;98.60
27306;DHT22;14792;50.886;6.468;2022-09-03T01:44:49;16.40;98.80
27306;DHT22;14792;50.886;6.468;2022-09-03T01:51:17;16.40;99.10
27306;DHT22;14792;50.886;6.468;2022-09-03T01:58:04;16.30;99.30
27306;DHT22;14792;50.886;6.468;2022-09-03T02:00:51;16.30;99.40
27306;DHT22;14792;50.886;6.468;2022-09-03T02:03:51;16.20;99.70
27306;DHT22;14792;50.886;6.468;2022-09-03T02:06:53;16.20;99.80
27306;DHT22;14792;50.886;6.468;2022-09-03T02:09:54;16.20;99.90
27306;DHT22;14792;50.886;6.468;2022-09-03T02:12:58;16.20;99.90
27306;DHT22;14792;50.886;6.468;2022-09-03T02:15:59;16.20;99.90
27306;DHT22;14792;50.886;6.468;2022-09-03T02:19:04;16.20;99.90
27306;DHT22;14792;50.886;6.468;2022-09-03T02:22:04;16.10;99.90
27306;DHT22;14792;50.886;6.468;2022-09-03T02:25:05;16.10;99.90
27306;DHT22;14792;50.886;6.468;2022-09-03T02:28:07;16.10;99.90
27306;DHT22;14792;50.886;6.468;2022-09-03T02:31:08;16.10;99.90
27306;DHT22;14792;50.886;6.468;2022-09-03T02:34:10;16.00;99.90
27306;DHT22;14792;50.886;6.468;2022-09-03T02:37:13;16.00;99.90
27306;DHT22;14792;50.886;6.468;2022-09-03T02:40:13;16.00;99.90
27306;DHT22;14792;50.886;6.468;2022-09-03T02:43:16;15.90;99.90
27306;DHT22;14792;50.886;6.468;2022-09-03T02:46:20;15.90;99.90
27306;DHT22;14792;50.886;6.468;2022-09-03T02:49:21;15.80;99.90
27306;DHT22;14792;50.886;6.468;2022-09-03T02:52:25;15.80;99.90
27306;DHT22;14792;50.886;6.468;2022-09-03T02:55:26;15.80;99.90
27306;DHT22;14792;50.886;6.468;2022-09-03T02:58:28;15.70;99.90
27306;DHT22;14792;50.886;6.468;2022-09-03T03:01:30;15.80;99.90
27306;DHT22;14792;50.886;6.468;2022-09-03T03:04:31;15.80;99.90
27306;DHT22;14792;50.886;6.468;2022-09-03T03:07:34;15.80;99.90
27306;DHT22;14792;50.886;6.468;2022-09-03T03:10:34;15.80;99.90
27306;DHT22;14792;50.886;6.468;2022-09-03T03:13:36;15.80;99.90
27306;DHT22;14792;50.886;6.468;2022-09-03T03:16:37;15.80;99.90
27306;DHT22;14792;50.886;6.468;2022-09-03T03:19:39;15.80;99.90
27306;DHT22;14792;50.886;6.468;2022-09-03T03:22:41;15.80;99.90
27306;DHT22;14792;50.886;6.468;2022-09-03T03:25:42;15.80;99.90
27306;DHT22;14792;50.886;6.468;2022-09-03T03:28:45;15.70;99.90
27306;DHT22;14792;50.886;6.468;2022-09-03T03:31:45;15.70;99.90
27306;DHT22;14792;50.886;6.468;2022-09-03T03:34:47;15.70;99.90
27306;DHT22;14792;50.886;6.468;2022-09-03T03:37:49;15.70;99.90
27306;DHT22;14792;50.886;6.468;2022-09-03T03:40:50;15.80;99.90
27306;DHT22;14792;50.886;6.468;2022-09-03T03:43:52;15.80;99.90
27306;DHT22;14792;50.886;6.468;2022-09-03T03:46:53;15.80;99.90
27306;DHT22;14792;50.886;6.468;2022-09-03T03:49:56;15.80;99.90
27306;DHT22;14792;50.886;6.468;2022-09-03T03:52:59;15.80;99.90
27306;DHT22;14792;50.886;6.468;2022-09-03T03:56:02;15.80;99.90
27306;DHT22;14792;50.886;6.468;2022-09-03T03:59:03;15.90;99.90
27306;DHT22;14792;50.886;6.468;2022-09-03T04:02:04;15.90;99.90
27306;DHT22;14792;50.886;6.468;2022-09-03T04:05:06;15.90;99.90
27306;DHT22;14792;50.886;6.468;2022-09-03T04:08:07;15.90;99.90
27306;DHT22;14792;50.886;6.468;2022-09-03T04:11:10;15.90;99.90
27306;DHT22;14792;50.886;6.468;2022-09-03T04:14:11;15.90;99.90
27306;DHT22;14792;50.886;6.468;2022-09-03T04:17:12;15.90;99.90
27306;DHT22;14792;50.886;6.468;2022-09-03T04:20:14;15.90;99.90
27306;DHT22;14792;50.886;6.468;2022-09-03T04:23:15;15.80;99.90
27306;DHT22;14792;50.886;6.468;2022-09-03T04:26:20;15.80;99.90
27306;DHT22;14792;50.886;6.468;2022-09-03T04:29:18;15.80;99.90
27306;DHT22;14792;50.886;6.468;2022-09-03T04:32:20;15.80;99.90
27306;DHT22;14792;50.886;6.468;2022-09-03T04:35:40;15.80;99.90
27306;DHT22;14792;50.886;6.468;2022-09-03T04:38:43;15.80;99.90
27306;DHT22;14792;50.886;6.468;2022-09-03T04:41:43;15.80;99.90
27306;DHT22;14792;50.886;6.468;2022-09-03T04:44:45;15.80;99.90
27306;DHT22;14792;50.886;6.468;2022-09-03T04:47:58;15.80;99.90
27306;DHT22;14792;50.886;6.468;2022-09-03T04:51:09;15.80;99.90
27306;DHT22;14792;50.886;6.468;2022-09-03T04:54:07;15.70;99.90
27306;DHT22;14792;50.886;6.468;2022-09-03T04:57:09;15.70;99.90
27306;DHT22;14792;50.886;6.468;2022-09-03T05:00:10;15.70;99.90
27306;DHT22;14792;50.886;6.468;2022-09-03T05:03:12;15.60;99.90
27306;DHT22;14792;50.886;6.468;2022-09-03T05:06:14;15.60;99.90
27306;DHT22;14792;50.886;6.468;2022-09-03T05:09:15;15.60;99.90
27306;DHT22;14792;50.886;6.468;2022-09-03T05:12:17;15.50;99.90
27306;DHT22;14792;50.886;6.468;2022-09-03T05:15:18;15.50;99.90
27306;DHT22;14792;50.886;6.468;2022-09-03T05:18:20;15.50;99.90
27306;DHT22;14792;50.886;6.468;2022-09-03T05:21:22;15.60;99.90
27306;DHT22;14792;50.886;6.468;2022-09-03T05:24:23;15.60;99.90
27306;DHT22;14792;50.886;6.468;2022-09-03T05:27:25;15.60;99.90
27306;DHT22;14792;50.886;6.468;2022-09-03T05:30:26;15.60;99.90
27306;DHT22;14792;50.886;6.468;2022-09-03T05:33:28;15.60;99.90
27306;DHT22;14792;50.886;6.468;2022-09-03T05:36:33;15.70;99.90
27306;DHT22;14792;50.886;6.468;2022-09-03T05:39:31;15.70;99.90
27306;DHT22;14792;50.886;6.468;2022-09-03T05:42:33;15.70;99.90
27306;DHT22;14792;50.886;6.468;2022-09-03T05:45:34;15.80;99.90
27306;DHT22;14792;50.886;6.468;2022-09-03T05:48:37;15.90;99.90
27306;DHT22;14792;50.886;6.468;2022-09-03T05:51:38;15.90;99.90
27306;DHT22;14792;50.886;6.468;2022-09-03T05:54:42;16.00;99.90
27306;DHT22;14792;50.886;6.468;2022-09-03T05:57:52;16.00;99.90
27306;DHT22;14792;50.886;6.468;2022-09-03T06:00:47;16.10;99.90
27306;DHT22;14792;50.886;6.468;2022-09-03T06:03:56;16.10;99.90
27306;DHT22;14792;50.886;6.468;2022-09-03T06:06:56;16.20;99.90
27306;DHT22;14792;50.886;6.468;2022-09-03T06:09:58;16.30;99.90
27306;DHT22;14792;50.886;6.468;2022-09-03T06:12:59;16.20;99.90
27306;DHT22;14792;50.886;6.468;2022-09-03T06:16:02;16.20;99.90
27306;DHT22;14792;50.886;6.468;2022-09-03T06:19:03;16.20;99.90
27306;DHT22;14792;50.886;6.468;2022-09-03T06:22:04;16.30;99.90
27306;DHT22;14792;50.886;6.468;2022-09-03T06:25:06;16.40;99.90
27306;DHT22;14792;50.886;6.468;2022-09-03T06:28:07;16.40;99.90
27306;DHT22;14792;50.886;6.468;2022-09-03T06:31:10;16.50;99.90
27306;DHT22;14792;50.886;6.468;2022-09-03T06:34:11;16.50;99.90
27306;DHT22;14792;50.886;6.468;2022-09-03T06:37:12;16.60;99.90
27306;DHT22;14792;50.886;6.468;2022-09-03T06:40:14;16.60;99.90
27306;DHT22;14792;50.886;6.468;2022-09-03T06:43:15;16.60;99.90
27306;DHT22;14792;50.886;6.468;2022-09-03T06:46:18;16.60;99.90
27306;DHT22;14792;50.886;6.468;2022-09-03T06:49:19;16.60;99.90
27306;DHT22;14792;50.886;6.468;2022-09-03T06:52:21;16.70;99.90
27306;DHT22;14792;50.886;6.468;2022-09-03T06:55:22;16.70;99.90
27306;DHT22;14792;50.886;6.468;2022-09-03T06:58:27;16.70;99.90
27306;DHT22;14792;50.886;6.468;2022-09-03T07:01:26;16.80;99.90
27306;DHT22;14792;50.886;6.468;2022-09-03T07:04:27;16.90;99.90
27306;DHT22;14792;50.886;6.468;2022-09-03T07:07:28;16.90;99.90
27306;DHT22;14792;50.886;6.468;2022-09-03T07:10:30;17.10;99.90
27306;DHT22;14792;50.886;6.468;2022-09-03T07:13:32;17.10;99.90
27306;DHT22;14792;50.886;6.468;2022-09-03T07:16:37;17.20;99.90
27306;DHT22;14792;50.886;6.468;2022-09-03T07:19:39;17.30;99.90
27306;DHT22;14792;50.886;6.468;2022-09-03T07:22:40;17.30;99.90
27306;DHT22;14792;50.886;6.468;2022-09-03T07:25:42;17.40;99.90
27306;DHT22;14792;50.886;6.468;2022-09-03T07:28:44;17.30;99.90
27306;DHT22;14792;50.886;6.468;2022-09-03T07:31:49;17.40;99.90
27306;DHT22;14792;50.886;6.468;2022-09-03T07:34:49;17.50;99.90
27306;DHT22;14792;50.886;6.468;2022-09-03T07:37:51;17.60;99.90
27306;DHT22;14792;50.886;6.468;2022-09-03T07:40:56;17.60;99.90
27306;DHT22;14792;50.886;6.468;2022-09-03T07:43:57;17.60;99.90
27306;DHT22;14792;50.886;6.468;2022-09-03T07:46:59;17.70;99.90
27306;DHT22;14792;50.886;6.468;2022-09-03T07:50:01;17.80;99.90
27306;DHT22;14792;50.886;6.468;2022-09-03T07:53:02;17.80;99.90
27306;DHT22;14792;50.886;6.468;2022-09-03T07:56:08;18.10;99.90
27306;DHT22;14792;50.886;6.468;2022-09-03T07:59:08;18.30;99.90
27306;DHT22;14792;50.886;6.468;2022-09-03T08:02:10;18.70;99.90
27306;DHT22;14792;50.886;6.468;2022-09-03T08:05:12;19.00;99.90
27306;DHT22;14792;50.886;6.468;2022-09-03T08:08:13;19.20;99.90
27306;DHT22;14792;50.886;6.468;2022-09-03T08:11:16;19.10;99.90
27306;DHT22;14792;50.886;6.468;2022-09-03T08:14:16;19.00;99.90
27306;DHT22;14792;50.886;6.468;2022-09-03T08:17:18;18.80;99.90
27306;DHT22;14792;50.886;6.468;2022-09-03T08:20:20;18.80;99.90
27306;DHT22;14792;50.886;6.468;2022-09-03T08:23:21;18.90;99.90
27306;DHT22;14792;50.886;6.468;2022-09-03T08:26:23;19.00;99.90
27306;DHT22;14792;50.886;6.468;2022-09-03T08:29:24;19.10;99.90
27306;DHT22;14792;50.886;6.468;2022-09-03T08:32:26;19.10;99.90
27306;DHT22;14792;50.886;6.468;2022-09-03T08:35:28;19.20;99.90
27306;DHT22;14792;50.886;6.468;2022-09-03T08:38:30;19.30;99.90
27306;DHT22;14792;50.886;6.468;2022-09-03T08:44:53;19.60;99.90
27306;DHT22;14792;50.886;6.468;2022-09-03T08:48:01;19.80;99.90
27306;DHT22;14792;50.886;6.468;2022-09-03T08:51:00;19.90;99.90
27306;DHT22;14792;50.886;6.468;2022-09-03T08:54:02;20.10;99.90
27306;DHT22;14792;50.886;6.468;2022-09-03T08:57:04;20.30;99.90
27306;DHT22;14792;50.886;6.468;2022-09-03T09:00:05;20.40;99.90
27306;DHT22;14792;50.886;6.468;2022-09-03T09:03:18;20.80;99.90
27306;DHT22;14792;50.886;6.468;2022-09-03T09:06:22;20.90;99.90
27306;DHT22;14792;50.886;6.468;2022-09-03T09:16:02;21.40;99.90
27306;DHT22;14792;50.886;6.468;2022-09-03T09:22:32;22.10;99.90
27306;DHT22;14792;50.886;6.468;2022-09-03T09:25:32;22.50;99.90
27306;DHT22;14792;50.886;6.468;2022-09-03T09:28:36;22.60;99.90
27306;DHT22;14792;50.886;6.468;2022-09-03T09:31:36;22.60;99.90
27306;DHT22;14792;50.886;6.468;2022-09-03T09:34:37;23.00;99.90
27306;DHT22;14792;50.886;6.468;2022-09-03T09:37:51;23.10;99.90
27306;DHT22;14792;50.886;6.468;2022-09-03T09:40:52;23.00;99.90
27306;DHT22;14792;50.886;6.468;2022-09-03T09:43:59;23.30;99.90
27306;DHT22;14792;50.886;6.468;2022-09-03T09:47:07;23.30;99.90
27306;DHT22;14792;50.886;6.468;2022-09-03T09:50:16;23.30;99.90
27306;DHT22;14792;50.886;6.468;2022-09-03T09:53:17;23.20;99.90
27306;DHT22;14792;50.886;6.468;2022-09-03T09:56:21;23.20;99.90
27306;DHT22;14792;50.886;6.468;2022-09-03T09:59:22;23.10;99.90
27306;DHT22;14792;50.886;6.468;2022-09-03T10:02:24;23.10;99.90
27306;DHT22;14792;50.886;6.468;2022-09-03T10:05:26;23.60;99.90
27306;DHT22;14792;50.886;6.468;2022-09-03T10:08:27;23.40;99.90
27306;DHT22;14792;50.886;6.468;2022-09-03T10:11:29;23.40;99.90
27306;DHT22;14792;50.886;6.468;2022-09-03T10:14:36;23.80;99.90
27306;DHT22;14792;50.886;6.468;2022-09-03T10:17:52;23.80;99.90
27306;DHT22;14792;50.886;6.468;2022-09-03T10:20:57;23.40;99.90
27306;DHT22;14792;50.886;6.468;2022-09-03T10:27:10;23.40;99.90
27306;DHT22;14792;50.886;6.468;2022-09-03T10:30:08;23.60;99.90
27306;DHT22;14792;50.886;6.468;2022-09-03T10:33:14;23.60;99.90
27306;DHT22;14792;50.886;6.468;2022-09-03T10:46:27;23.90;99.90
27306;DHT22;14792;50.886;6.468;2022-09-03T10:56:12;23.40;99.90
27306;DHT22;14792;50.886;6.468;2022-09-03T10:59:18;23.30;99.90
27306;DHT22;14792;50.886;6.468;2022-09-03T11:08:35;23.50;99.90
27306;DHT22;14792;50.886;6.468;2022-09-03T11:11:36;23.60;99.90
27306;DHT22;14792;50.886;6.468;2022-09-03T11:14:41;23.50;99.90
27306;DHT22;14792;50.886;6.468;2022-09-03T11:17:41;23.80;99.90
27306;DHT22;14792;50.886;6.468;2022-09-03T11:20:43;24.00;99.90
27306;DHT22;14792;50.886;6.468;2022-09-03T11:23:45;24.10;99.90
27306;DHT22;14792;50.886;6.468;2022-09-03T11:26:47;24.00;99.90
27306;DHT22;14792;50.886;6.468;2022-09-03T11:32:55;24.00;99.90
27306;DHT22;14792;50.886;6.468;2022-09-03T11:35:57;23.40;99.90
27306;DHT22;14792;50.886;6.468;2022-09-03T11:38:58;23.70;99.90
27306;DHT22;14792;50.886;6.468;2022-09-03T11:42:00;23.80;99.90
27306;DHT22;14792;50.886;6.468;2022-09-03T11:45:32;24.00;99.90
27306;DHT22;14792;50.886;6.468;2022-09-03T11:48:43;23.90;99.90
27306;DHT22;14792;50.886;6.468;2022-09-03T11:51:41;24.10;99.90
27306;DHT22;14792;50.886;6.468;2022-09-03T11:54:43;24.20;99.90
27306;DHT22;14792;50.886;6.468;2022-09-03T11:57:44;24.10;99.90
27306;DHT22;14792;50.886;6.468;2022-09-03T12:00:45;24.10;99.90
27306;DHT22;14792;50.886;6.468;2022-09-03T12:03:57;24.20;99.90
27306;DHT22;14792;50.886;6.468;2022-09-03T12:10:23;24.30;99.90
27306;DHT22;14792;50.886;6.468;2022-09-03T12:16:56;24.60;99.90
27306;DHT22;14792;50.886;6.468;2022-09-03T12:19:55;24.70;99.90
27306;DHT22;14792;50.886;6.468;2022-09-03T12:22:56;24.80;99.90
27306;DHT22;14792;50.886;6.468;2022-09-03T12:26:05;24.70;99.90
27306;DHT22;14792;50.886;6.468;2022-09-03T12:29:05;24.70;99.90
27306;DHT22;14792;50.886;6.468;2022-09-03T12:32:08;24.60;99.90
27306;DHT22;14792;50.886;6.468;2022-09-03T12:35:19;24.70;99.90
27306;DHT22;14792;50.886;6.468;2022-09-03T12:38:23;25.00;99.90
27306;DHT22;14792;50.886;6.468;2022-09-03T12:41:25;24.80;99.90
27306;DHT22;14792;50.886;6.468;2022-09-03T12:44:38;25.00;99.90
27306;DHT22;14792;50.886;6.468;2022-09-03T12:47:37;25.00;99.90
27306;DHT22;14792;50.886;6.468;2022-09-03T12:50:35;24.80;99.90
27306;DHT22;14792;50.886;6.468;2022-09-03T12:53:37;25.00;99.90
27306;DHT22;14792;50.886;6.468;2022-09-03T12:56:38;24.90;99.90
27306;DHT22;14792;50.886;6.468;2022-09-03T12:59:40;25.00;99.90
27306;DHT22;14792;50.886;6.468;2022-09-03T13:02:53;24.90;99.90
27306;DHT22;14792;50.886;6.468;2022-09-03T13:05:57;25.10;99.90
27306;DHT22;14792;50.886;6.468;2022-09-03T13:09:01;25.10;99.90
27306;DHT22;14792;50.886;6.468;2022-09-03T13:12:01;25.10;99.90
27306;DHT22;14792;50.886;6.468;2022-09-03T13:15:07;25.20;99.90
27306;DHT22;14792;50.886;6.468;2022-09-03T13:18:18;25.40;99.90
27306;DHT22;14792;50.886;6.468;2022-09-03T13:21:52;25.40;99.90
27306;DHT22;14792;50.886;6.468;2022-09-03T13:28:35;24.90;99.90
27306;DHT22;14792;50.886;6.468;2022-09-03T13:31:36;24.80;99.90
27306;DHT22;14792;50.886;6.468;2022-09-03T13:34:38;24.80;99.90
27306;DHT22;14792;50.886;6.468;2022-09-03T13:37:46;24.80;99.90
27306;DHT22;14792;50.886;6.468;2022-09-03T13:47:42;25.40;99.90
27306;DHT22;14792;50.886;6.468;2022-09-03T13:50:52;25.20;99.90
27306;DHT22;14792;50.886;6.468;2022-09-03T13:54:02;25.10;99.90
27306;DHT22;14792;50.886;6.468;2022-09-03T14:00:06;25.00;99.90
27306;DHT22;14792;50.886;6.468;2022-09-03T14:03:30;24.90;99.90
27306;DHT22;14792;50.886;6.468;2022-09-03T14:06:41;25.20;99.90
27306;DHT22;14792;50.886;6.468;2022-09-03T14:13:36;25.30;99.90
27306;DHT22;14792;50.886;6.468;2022-09-03T14:16:38;25.00;99.90
27306;DHT22;14792;50.886;6.468;2022-09-03T14:26:14;25.30;99.90
27306;DHT22;14792;50.886;6.468;2022-09-03T14:35:46;25.40;99.90
27306;DHT22;14792;50.886;6.468;2022-09-03T14:52:14;25.10;99.90
27306;DHT22;14792;50.886;6.468;2022-09-03T15:15:41;24.60;99.90
27306;DHT22;14792;50.886;6.468;2022-09-03T15:19:10;24.50;99.90
27306;DHT22;14792;50.886;6.468;2022-09-03T15:32:20;24.30;99.90
27306;DHT22;14792;50.886;6.468;2022-09-03T15:35:29;24.30;99.90
27306;DHT22;14792;50.886;6.468;2022-09-03T15:38:38;24.30;99.90
27306;DHT22;14792;50.886;6.468;2022-09-03T15:44:50;24.20;99.90
27306;DHT22;14792;50.886;6.468;2022-09-03T15:47:52;24.10;99.90
27306;DHT22;14792;50.886;6.468;2022-09-03T15:51:15;24.10;99.90
27306;DHT22;14792;50.886;6.468;2022-09-03T15:54:21;23.90;99.90
27306;DHT22;14792;50.886;6.468;2022-09-03T15:57:32;23.70;99.90
27306;DHT22;14792;50.886;6.468;2022-09-03T16:00:30;23.70;99.90
27306;DHT22;14792;50.886;6.468;2022-09-03T16:03:43;23.70;99.90
27306;DHT22;14792;50.886;6.468;2022-09-03T16:10:09;23.60;99.90
27306;DHT22;14792;50.886;6.468;2022-09-03T16:13:21;23.50;99.90
27306;DHT22;14792;50.886;6.468;2022-09-03T16:16:12;23.50;99.90
27306;DHT22;14792;50.886;6.468;2022-09-03T16:19:16;23.40;99.90
27306;DHT22;14792;50.886;6.468;2022-09-03T16:22:26;23.40;99.90
27306;DHT22;14792;50.886;6.468;2022-09-03T16:28:54;23.40;99.90
27306;DHT22;14792;50.886;6.468;2022-09-03T16:39:00;23.00;99.90
27306;DHT22;14792;50.886;6.468;2022-09-03T16:41:47;22.90;99.90
27306;DHT22;14792;50.886;6.468;2022-09-03T16:48:28;22.80;99.90
27306;DHT22;14792;50.886;6.468;2022-09-03T16:51:35;22.70;99.90
27306;DHT22;14792;50.886;6.468;2022-09-03T16:57:51;22.70;99.90
27306;DHT22;14792;50.886;6.468;2022-09-03T17:01:04;22.70;99.90
27306;DHT22;14792;50.886;6.468;2022-09-03T17:10:48;22.80;99.90
27306;DHT22;14792;50.886;6.468;2022-09-03T17:20:43;22.90;99.90
27306;DHT22;14792;50.886;6.468;2022-09-03T17:24:07;22.90;99.90
27306;DHT22;14792;50.886;6.468;2022-09-03T17:34:01;22.80;99.90
27306;DHT22;14792;50.886;6.468;2022-09-03T17:43:48;22.80;99.90
27306;DHT22;14792;50.886;6.468;2022-09-03T17:53:16;22.60;99.90
27306;DHT22;14792;50.886;6.468;2022-09-03T17:59:54;22.50;99.90
27306;DHT22;14792;50.886;6.468;2022-09-03T18:03:01;22.40;99.90
27306;DHT22;14792;50.886;6.468;2022-09-03T18:06:05;22.30;99.90
27306;DHT22;14792;50.886;6.468;2022-09-03T18:09:29;22.20;99.90
27306;DHT22;14792;50.886;6.468;2022-09-03T18:12:37;22.20;99.90
27306;DHT22;14792;50.886;6.468;2022-09-03T18:16:06;22.10;99.90
27306;DHT22;14792;50.886;6.468;2022-09-03T18:26:30;22.30;99.90
27306;DHT22;14792;50.886;6.468;2022-09-03T18:33:11;22.20;99.90
27306;DHT22;14792;50.886;6.468;2022-09-03T18:36:31;22.00;99.90
27306;DHT22;14792;50.886;6.468;2022-09-03T18:39:50;21.80;99.90
27306;DHT22;14792;50.886;6.468;2022-09-03T18:43:17;21.80;99.90
27306;DHT22;14792;50.886;6.468;2022-09-03T18:46:45;21.70;99.90
27306;DHT22;14792;50.886;6.468;2022-09-03T18:50:03;21.80;99.90
27306;DHT22;14792;50.886;6.468;2022-09-03T18:53:36;21.50;99.90
27306;DHT22;14792;50.886;6.468;2022-09-03T18:56:54;21.40;99.90
27306;DHT22;14792;50.886;6.468;2022-09-03T19:00:14;21.50;99.90
27306;DHT22;14792;50.886;6.468;2022-09-03T19:03:46;21.40;99.90
27306;DHT22;14792;50.886;6.468;2022-09-03T19:07:13;21.10;99.90
27306;DHT22;14792;50.886;6.468;2022-09-03T19:14:06;21.10;99.90
27306;DHT22;14792;50.886;6.468;2022-09-03T19:21:28;20.90;99.90
27306;DHT22;14792;50.886;6.468;2022-09-03T19:24:46;20.80;99.90
27306;DHT22;14792;50.886;6.468;2022-09-03T19:28:22;20.70;99.90
27306;DHT22;14792;50.886;6.468;2022-09-03T19:31:42;20.60;99.90
27306;DHT22;14792;50.886;6.468;2022-09-03T19:35:15;20.60;99.90
27306;DHT22;14792;50.886;6.468;2022-09-03T19:42:07;20.50;99.90
27306;DHT22;14792;50.886;6.468;2022-09-03T19:45:36;20.50;99.90
27306;DHT22;14792;50.886;6.468;2022-09-03T19:49:13;20.40;99.90
27306;DHT22;14792;50.886;6.468;2022-09-03T19:56:09;20.30;99.90
27306;DHT22;14792;50.886;6.468;2022-09-03T19:59:28;20.30;99.90
27306;DHT22;14792;50.886;6.468;2022-09-03T20:02:47;20.00;99.90
27306;DHT22;14792;50.886;6.468;2022-09-03T20:06:06;20.10;99.90
27306;DHT22;14792;50.886;6.468;2022-09-03T20:09:28;20.20;99.90
27306;DHT22;14792;50.886;6.468;2022-09-03T20:12:47;20.20;99.90
27306;DHT22;14792;50.886;6.468;2022-09-03T20:16:00;20.20;99.90
27306;DHT22;14792;50.886;6.468;2022-09-03T20:25:48;20.00;99.90
27306;DHT22;14792;50.886;6.468;2022-09-03T20:35:26;19.90;99.90
27306;DHT22;14792;50.886;6.468;2022-09-03T20:48:18;19.60;99.90
27306;DHT22;14792;50.886;6.468;2022-09-03T20:51:12;19.50;99.90
27306;DHT22;14792;50.886;6.468;2022-09-03T20:54:29;19.40;99.90
27306;DHT22;14792;50.886;6.468;2022-09-03T20:57:44;19.20;99.90
27306;DHT22;14792;50.886;6.468;2022-09-03T21:00:47;19.20;99.90
27306;DHT22;14792;50.886;6.468;2022-09-03T21:04:03;19.10;99.90
27306;DHT22;14792;50.886;6.468;2022-09-03T21:10:23;19.30;99.90
27306;DHT22;14792;50.886;6.468;2022-09-03T21:23:35;19.10;99.90
27306;DHT22;14792;50.886;6.468;2022-09-03T21:26:37;19.10;99.90
27306;DHT22;14792;50.886;6.468;2022-09-03T21:30:06;19.00;99.90
27306;DHT22;14792;50.886;6.468;2022-09-03T21:32:59;19.00;99.90
27306;DHT22;14792;50.886;6.468;2022-09-03T21:36:13;18.90;99.90
27306;DHT22;14792;50.886;6.468;2022-09-03T21:39:12;18.70;99.90
27306;DHT22;14792;50.886;6.468;2022-09-03T21:42:36;18.60;99.90
27306;DHT22;14792;50.886;6.468;2022-09-03T21:46:02;18.60;99.90
27306;DHT22;14792;50.886;6.468;2022-09-03T21:49:05;18.50;99.90
27306;DHT22;14792;50.886;6.468;2022-09-03T21:52:10;18.40;99.90
27306;DHT22;14792;50.886;6.468;2022-09-03T21:55:48;18.50;99.90
27306;DHT22;14792;50.886;6.468;2022-09-03T22:04:57;18.40;99.90
27306;DHT22;14792;50.886;6.468;2022-09-03T22:08:14;18.30;99.90
27306;DHT22;14792;50.886;6.468;2022-09-03T22:11:20;18.20;99.90
27306;DHT22;14792;50.886;6.468;2022-09-03T22:14:19;18.20;99.90
27306;DHT22;14792;50.886;6.468;2022-09-03T22:17:34;18.20;99.90
27306;DHT22;14792;50.886;6.468;2022-09-03T22:20:32;18.20;99.90
27306;DHT22;14792;50.886;6.468;2022-09-03T22:26:56;18.10;99.90
27306;DHT22;14792;50.886;6.468;2022-09-03T22:30:05;18.20;99.90
27306;DHT22;14792;50.886;6.468;2022-09-03T22:33:13;18.10;99.90
27306;DHT22;14792;50.886;6.468;2022-09-03T22:36:39;18.10;99.90
27306;DHT22;14792;50.886;6.468;2022-09-03T22:39:38;18.00;99.90
27306;DHT22;14792;50.886;6.468;2022-09-03T22:42:54;18.00;99.90
27306;DHT22;14792;50.886;6.468;2022-09-03T22:55:23;17.60;99.90
27306;DHT22;14792;50.886;6.468;2022-09-03T22:58:25;17.60;99.90
27306;DHT22;14792;50.886;6.468;2022-09-03T23:01:47;17.60;99.90
27306;DHT22;14792;50.886;6.468;2022-09-03T23:14:27;17.50;99.90
27306;DHT22;14792;50.886;6.468;2022-09-03T23:17:29;17.40;99.90
27306;DHT22;14792;50.886;6.468;2022-09-03T23:20:29;17.30;99.90
27306;DHT22;14792;50.886;6.468;2022-09-03T23:23:35;17.30;99.90
27306;DHT22;14792;50.886;6.468;2022-09-03T23:26:40;17.40;99.90
27306;DHT22;14792;50.886;6.468;2022-09-03T23:29:55;17.30;99.90
27306;DHT22;14792;50.886;6.468;2022-09-03T23:32:57;17.30;99.90
27306;DHT22;14792;50.886;6.468;2022-09-03T23:36:01;17.20;99.90
27306;DHT22;14792;50.886;6.468;2022-09-03T23:39:05;17.10;99.90
27306;DHT22;14792;50.886;6.468;2022-09-03T23:51:59;16.70;99.90
